Onset, MA

9:39 AM EDT on October 31, 2014 (GMT -0400)
Barlow's Landing | Change Station
CLOSE
Current Station
Personal Weather Station
Location: Bourne, MA
Elevation: 20 ft
Nearby Weather Stations

Elev 20 ft 41.69 °N, 70.63 °W | Updated 5 seconds ago

Partly Cloudy
Partly Cloudy
52.7 °F
Feels Like 52.7 °F
N
3.1
Wind Variable Wind from ENE
Gusts 4.2 mph

Today
High -- | Low -- °F
--% Chance of Precip.
Yesterday
High -- | Low -- °F
Precip. -- in
7:13 AM 5:38 PM
First Quarter, 55% visible
Pressure 30.01 in
Visibility 10.0 miles
Clouds Mostly Cloudy 5000 ft
Dew Point 45 °F
Humidity 75%
Rainfall 0.00 in
Snow Depth Not available.
UV 1 out of 12
Pollen .50 out of 12
Air Quality Not available.
Flu Activity Not available.
METAR KFMH 311335Z AUTO 07010KT 10SM BKN050 11/07 A3001 RMK AO2

More Conditions Fewer Conditions

Pressure 30.01 in
Visibility 10.0 miles
Clouds Mostly Cloudy 5000 ft
Dew Point 45 °F
Humidity 75%
Rainfall 0.00 in
Snow Depth Not available.
UV 1 out of 12
Pollen .50 out of 12
Air Quality Not available.
Flu Activity Not available.
METAR KFMH 311335Z AUTO 07010KT 10SM BKN050 11/07 A3001 RMK AO2

More Conditions Fewer Conditions

10-Day Weather Forecast

Almanac

Astronomy

Oct. 31, 2014 Rise Set
Actual Time
Civil Twilight
Nautical Twilight
Astronomical Twilight
Moon
Length of Visible Light
Length of Day
Tomorrow will be .
, % of the Moon is Illuminated

Today's Extremes

State Highs State Lows

Community

WunderPhotos

Upload Photos

1,766,610 photos uploaded!

WunderBlogs® & News

Nearby

Air Quality

  Air Quality AQ Index Pollutant
Not available.

Snow Depth

Station Depth Elevation

Earthquake Activity

City Distance Mag. Time & Date
Minimum magnitude displayed is 2.5.

Coastal Water Temperatures

Place Temperature

Nearby Weather Stations